createdAt,value
2023-03-06T00:01:19.722Z,-1.85
2023-03-06T00:06:23.489Z,-1.95
2023-03-06T00:11:27.384Z,-2.07
2023-03-06T00:16:31.185Z,-2.12
2023-03-06T00:21:35.165Z,-2.13
2023-03-06T00:26:40.499Z,-2.12
2023-03-06T00:31:47.328Z,-2.11
2023-03-06T00:36:51.826Z,-2.14
2023-03-06T00:41:55.958Z,-2.14
2023-03-06T00:47:01.980Z,-2.12
2023-03-06T00:52:08.448Z,-2.06
2023-03-06T00:57:12.244Z,-2.01
2023-03-06T01:02:16.027Z,-1.95
2023-03-06T01:07:20.647Z,-1.84
2023-03-06T01:12:24.544Z,-1.73
2023-03-06T01:17:28.384Z,-1.67
2023-03-06T01:22:32.839Z,-1.61
2023-03-06T01:27:36.536Z,-1.57
2023-03-06T01:32:40.705Z,-1.52
2023-03-06T01:37:44.555Z,-1.48
2023-03-06T01:42:49.741Z,-1.42
2023-03-06T01:47:53.543Z,-1.35
2023-03-06T01:52:59.748Z,-1.27
2023-03-06T01:58:09.801Z,-1.20
2023-03-06T02:03:23.240Z,-1.13
2023-03-06T02:08:27.220Z,-1.04
2023-03-06T02:13:32.182Z,-1.00
2023-03-06T02:18:37.066Z,-0.94
2023-03-06T02:24:28.023Z,-0.89
2023-03-06T02:29:31.964Z,-0.86
2023-03-06T02:34:38.825Z,-0.81
2023-03-06T02:39:49.167Z,-0.76
2023-03-06T02:44:55.105Z,-0.71
2023-03-06T02:49:58.944Z,-0.67
2023-03-06T02:55:03.047Z,-0.63
2023-03-06T03:00:07.745Z,-0.63
2023-03-06T03:05:11.777Z,-0.64
2023-03-06T03:10:19.195Z,-0.64
2023-03-06T03:15:26.318Z,-0.64
2023-03-06T03:20:30.037Z,-0.63
2023-03-06T03:25:33.939Z,-0.64
2023-03-06T03:30:39.967Z,-0.66
2023-03-06T03:35:45.283Z,-0.67
2023-03-06T03:40:49.121Z,-0.67
2023-03-06T03:45:54.063Z,-0.67
2023-03-06T03:51:06.156Z,-0.67
2023-03-06T03:56:11.163Z,-0.66
2023-03-06T04:01:20.887Z,-0.64
2023-03-06T04:06:24.901Z,-0.62
2023-03-06T04:11:30.583Z,-0.59
2023-03-06T04:16:34.708Z,-0.57
2023-03-06T04:21:38.948Z,-0.54
2023-03-06T04:26:44.757Z,-0.49
2023-03-06T04:31:50.086Z,-0.47
2023-03-06T04:36:54.069Z,-0.45
2023-03-06T04:41:58.701Z,-0.43
2023-03-06T04:47:02.488Z,-0.40
2023-03-06T04:52:09.261Z,-0.38
2023-03-06T04:57:14.669Z,-0.36
2023-03-06T05:02:18.851Z,-0.29
2023-03-06T05:07:24.843Z,-0.23
2023-03-06T05:12:28.541Z,-0.15
2023-03-06T05:17:32.497Z,-0.05
2023-03-06T05:22:36.148Z,0.06
2023-03-06T05:27:42.461Z,0.14
2023-03-06T05:32:46.208Z,0.18
2023-03-06T05:37:50.557Z,0.20
2023-03-06T05:42:54.817Z,0.22
2023-03-06T05:47:58.572Z,0.26
2023-03-06T05:53:03.462Z,0.32
2023-03-06T05:58:07.269Z,0.37
2023-03-06T06:03:11.125Z,0.42
2023-03-06T06:08:15.060Z,0.47
2023-03-06T06:13:19.199Z,0.53
2023-03-06T06:18:23.001Z,0.59
2023-03-06T06:23:26.699Z,0.67
2023-03-06T06:28:31.619Z,0.79
2023-03-06T06:33:35.392Z,0.93
2023-03-06T06:38:39.159Z,1.06
2023-03-06T06:43:42.860Z,1.16
2023-03-06T06:48:49.899Z,1.25
2023-03-06T06:53:53.966Z,1.36
2023-03-06T06:59:15.398Z,1.47
2023-03-06T07:04:20.908Z,1.59
2023-03-06T07:09:24.732Z,1.73
2023-03-06T07:14:28.563Z,1.89
2023-03-06T07:19:32.222Z,2.03
2023-03-06T07:24:36.020Z,2.14
2023-03-06T07:29:42.578Z,2.25
2023-03-06T07:34:48.300Z,2.38
2023-03-06T07:39:52.092Z,2.52
2023-03-06T07:44:55.882Z,2.69
2023-03-06T07:50:03.389Z,2.83
2023-03-06T07:55:07.739Z,2.91
2023-03-06T08:00:14.816Z,3.02
2023-03-06T08:05:20.026Z,3.19
2023-03-06T08:10:23.786Z,3.36
2023-03-06T08:15:28.269Z,3.49
2023-03-06T08:20:31.910Z,3.63
2023-03-06T08:25:35.885Z,3.76
2023-03-06T08:30:39.541Z,3.91
2023-03-06T08:35:43.369Z,4.03
2023-03-06T08:40:47.147Z,4.08
2023-03-06T08:45:55.351Z,4.12
2023-03-06T08:50:59.260Z,4.12
2023-03-06T08:56:03.618Z,4.21
2023-03-06T09:01:16.375Z,4.25
2023-03-06T09:06:20.160Z,4.31
2023-03-06T09:11:25.295Z,4.39
2023-03-06T09:16:29.051Z,4.48
2023-03-06T09:21:32.762Z,4.69
2023-03-06T09:26:45.496Z,4.85
2023-03-06T09:31:50.496Z,4.97
2023-03-06T09:36:57.238Z,5.08
2023-03-06T09:42:01.915Z,5.11
2023-03-06T09:47:29.079Z,5.12
2023-03-06T09:53:09.027Z,5.27
2023-03-06T09:58:21.940Z,5.30
2023-03-06T10:03:32.122Z,5.30
2023-03-06T10:08:57.486Z,5.50
2023-03-06T10:14:19.279Z,5.43
2023-03-06T10:19:33.598Z,5.61
2023-03-06T10:25:04.421Z,5.65
2023-03-06T10:30:40.489Z,5.75
2023-03-06T10:35:52.746Z,5.78
2023-03-06T10:41:11.452Z,6.02
2023-03-06T10:46:30.186Z,6.24
2023-03-06T10:51:36.717Z,6.05
2023-03-06T10:56:42.890Z,6.01
2023-03-06T11:01:51.399Z,5.99
2023-03-06T11:07:15.724Z,6.10
2023-03-06T11:13:10.738Z,6.28
2023-03-06T11:18:14.427Z,6.30
2023-03-06T11:23:47.678Z,6.23
2023-03-06T11:29:04.387Z,6.14
2023-03-06T11:34:09.997Z,6.01
2023-03-06T11:39:28.759Z,6.02
2023-03-06T11:45:10.543Z,5.94
2023-03-06T11:50:31.997Z,5.94
2023-03-06T11:56:15.959Z,5.97
2023-03-06T12:01:45.841Z,5.99
2023-03-06T12:06:58.103Z,5.83
2023-03-06T12:12:11.554Z,5.82
2023-03-06T12:17:23.096Z,5.82
2023-03-06T12:23:14.421Z,5.91
2023-03-06T12:28:37.063Z,6.19
2023-03-06T12:34:01.765Z,6.48
2023-03-06T12:39:21.091Z,6.74
2023-03-06T12:44:43.653Z,6.51
2023-03-06T12:50:15.832Z,6.06
2023-03-06T12:55:24.310Z,5.64
2023-03-06T13:00:35.340Z,5.28
2023-03-06T13:05:53.011Z,4.34
2023-03-06T13:11:42.053Z,3.58
2023-03-06T13:16:45.865Z,3.20
2023-03-06T13:21:55.673Z,2.95
2023-03-06T13:27:01.246Z,2.83
2023-03-06T13:32:19.178Z,2.71
2023-03-06T13:37:25.618Z,2.58
2023-03-06T13:42:35.469Z,2.48
2023-03-06T13:48:06.777Z,2.33
2023-03-06T13:53:52.530Z,2.24
2023-03-06T13:59:19.597Z,2.16
2023-03-06T14:04:56.969Z,2.04
2023-03-06T14:10:03.595Z,1.98
2023-03-06T14:15:24.444Z,1.97
2023-03-06T14:20:33.803Z,1.94
2023-03-06T14:25:37.425Z,1.97
2023-03-06T14:30:49.770Z,2.09
2023-03-06T14:35:55.712Z,2.17
2023-03-06T14:41:00.419Z,2.17
2023-03-06T14:46:09.443Z,2.30
2023-03-06T14:51:24.027Z,2.55
2023-03-06T14:56:28.179Z,2.76
2023-03-06T15:01:46.055Z,2.85
2023-03-06T15:06:50.420Z,2.95
2023-03-06T15:12:02.912Z,3.05
2023-03-06T15:17:19.328Z,3.08
2023-03-06T15:22:38.032Z,3.10
2023-03-06T15:27:42.086Z,3.15
2023-03-06T15:32:45.752Z,3.18
2023-03-06T15:37:49.690Z,3.21
2023-03-06T15:42:53.655Z,3.19
2023-03-06T15:47:57.920Z,3.17
2023-03-06T15:53:01.872Z,3.12
2023-03-06T15:58:07.573Z,3.06
2023-03-06T16:03:12.636Z,3.02
2023-03-06T16:08:16.627Z,2.99
2023-03-06T16:13:30.650Z,2.90
2023-03-06T16:25:01.387Z,2.60
2023-03-06T16:30:06.608Z,2.44
2023-03-06T16:35:12.992Z,2.33
2023-03-06T16:40:22.875Z,2.22
2023-03-06T16:45:30.461Z,2.14
2023-03-06T16:50:39.636Z,2.04
2023-03-06T16:55:45.358Z,1.95
2023-03-06T17:00:50.915Z,1.89
2023-03-06T17:05:56.279Z,1.87
2023-03-06T17:11:00.512Z,1.84
2023-03-06T17:16:07.213Z,1.80
2023-03-06T17:21:12.131Z,1.77
2023-03-06T17:26:19.284Z,1.75
2023-03-06T17:31:27.078Z,1.70
2023-03-06T17:36:32.600Z,1.61
2023-03-06T17:41:37.095Z,1.52
2023-03-06T17:46:41.349Z,1.40
2023-03-06T17:51:46.924Z,1.31
2023-03-06T17:56:52.370Z,1.21
2023-03-06T18:01:59.899Z,1.18
2023-03-06T18:07:04.527Z,1.19
2023-03-06T18:12:09.588Z,1.17
2023-03-06T18:17:14.264Z,1.06
2023-03-06T18:22:19.614Z,0.98
2023-03-06T18:27:25.209Z,0.98
2023-03-06T18:32:32.094Z,0.90
2023-03-06T18:37:43.033Z,0.88
2023-03-06T18:42:52.362Z,0.95
2023-03-06T18:47:58.991Z,1.04
2023-03-06T18:53:06.101Z,1.14
2023-03-06T18:58:11.667Z,1.15
2023-03-06T19:03:20.357Z,1.08
2023-03-06T19:08:27.818Z,1.05
2023-03-06T19:13:33.441Z,1.01
2023-03-06T19:18:42.160Z,0.95
2023-03-06T19:23:48.721Z,0.87
2023-03-06T19:28:58.622Z,0.89
2023-03-06T19:34:05.430Z,0.90
2023-03-06T19:39:12.971Z,0.87
2023-03-06T19:44:20.092Z,0.81
2023-03-06T19:49:26.302Z,0.76
2023-03-06T19:54:32.836Z,0.70
2023-03-06T19:59:38.847Z,0.63
2023-03-06T20:04:44.062Z,0.61
2023-03-06T20:09:53.056Z,0.61
2023-03-06T20:14:58.470Z,0.59
2023-03-06T20:20:03.493Z,0.58
2023-03-06T20:25:09.626Z,0.62
2023-03-06T20:30:18.448Z,0.62
2023-03-06T20:35:24.008Z,0.61
2023-03-06T20:40:29.530Z,0.62
2023-03-06T20:45:37.266Z,0.64
2023-03-06T20:50:47.269Z,0.63
2023-03-06T20:55:55.016Z,0.61
2023-03-06T21:01:02.394Z,0.59
2023-03-06T21:06:09.323Z,0.60
2023-03-06T21:11:13.859Z,0.59
2023-03-06T21:16:20.795Z,0.59
2023-03-06T21:21:28.010Z,0.61
2023-03-06T21:26:34.383Z,0.62
2023-03-06T21:31:39.306Z,0.66
2023-03-06T21:36:45.641Z,0.64
2023-03-06T21:41:49.454Z,0.63
2023-03-06T21:46:53.073Z,0.62
2023-03-06T21:51:57.304Z,0.57
2023-03-06T21:57:01.000Z,0.56
2023-03-06T22:02:04.638Z,0.58
2023-03-06T22:07:08.376Z,0.58
2023-03-06T22:12:12.412Z,0.57
2023-03-06T22:17:16.292Z,0.56
2023-03-06T22:22:20.073Z,0.57
2023-03-06T22:27:23.818Z,0.59
2023-03-06T22:32:27.549Z,0.59
2023-03-06T22:37:31.947Z,0.60
2023-03-06T22:42:35.767Z,0.57
2023-03-06T22:47:39.555Z,0.56
2023-03-06T22:52:43.415Z,0.54
2023-03-06T22:57:47.005Z,0.54
2023-03-06T23:02:50.628Z,0.55
2023-03-06T23:07:54.868Z,0.53
2023-03-06T23:12:58.673Z,0.49
2023-03-06T23:18:20.950Z,0.46
2023-03-06T23:23:47.419Z,0.43
2023-03-06T23:28:52.702Z,0.41
2023-03-06T23:34:02.467Z,0.38
2023-03-06T23:39:06.595Z,0.34
2023-03-06T23:44:11.187Z,0.29
2023-03-06T23:49:15.444Z,0.24
2023-03-06T23:54:20.327Z,0.20
2023-03-06T23:59:24.041Z,0.17
